Time;durP1;ratioP1;P1;durP2;ratioP2;P2;SDS_P1;SDS_P2;PMS_P1;PMS_P2;Temp;Humidity;BMP_temperature;BMP_pressure;BME280_temperature;BME280_humidity;BME280_pressure;Samples;Min_cycle;Max_cycle;Signal;HPM_P1;HPM_P2
2022/08/08 00:01:43;;;;;;;8.38;7.68;;;;;;;;;;5048733;28;20104;-72
2022/08/08 00:04:14;;;;;;;8.38;7.68;;;;;;;;;;5052854;28;20025;-72
2022/08/08 00:06:53;;;;;;;11.43;7.68;;;;;;;;;;5047565;28;21146;-71
2022/08/08 00:09:30;;;;;;;8.07;7.38;;;;;;;;;;5052607;28;20039;-71
2022/08/08 00:12:00;;;;;;;8.30;7.40;;;;;;;;;;5055120;28;20072;-72
2022/08/08 00:14:26;;;;;;;8.40;7.63;;;;;;;;;;5055008;28;20024;-70
2022/08/08 00:16:58;;;;;;;9.85;8.85;;;;;;;;;;5048353;28;20035;-73
2022/08/08 00:19:29;;;;;;;9.07;8.20;;;;;;;;;;5053782;28;20064;-71
2022/08/08 00:21:56;;;;;;;8.73;7.88;;;;;;;;;;5046678;28;20055;-74
2022/08/08 00:24:28;;;;;;;8.20;7.40;;;;;;;;;;5051213;28;20040;-71
2022/08/08 00:27:00;;;;;;;10.85;9.95;;;;;;;;;;5057513;28;20044;-70
2022/08/08 00:29:28;;;;;;;9.07;8.18;;;;;;;;;;5054659;28;20020;-71
2022/08/08 00:31:57;;;;;;;10.00;9.10;;;;;;;;;;5052242;28;20048;-71
2022/08/08 00:37:41;;;;;;;8.43;7.70;;;;;;;;;;5046346;28;20036;-70
2022/08/08 00:40:12;;;;;;;9.63;8.73;;;;;;;;;;5049342;28;20017;-71
2022/08/08 00:42:43;;;;;;;9.85;9.05;;;;;;;;;;5054097;28;20056;-74
2022/08/08 00:45:27;;;;;;;9.88;8.98;;;;;;;;;;5046952;28;20032;-72
2022/08/08 00:48:22;;;;;;;9.35;8.45;;;;;;;;;;5052403;28;20439;-73
2022/08/08 00:51:06;;;;;;;12.55;9.05;;;;;;;;;;5055362;28;20032;-72
2022/08/08 00:53:50;;;;;;;8.35;7.65;;;;;;;;;;5047547;28;20481;-72
2022/08/08 00:56:34;;;;;;;9.65;8.77;;;;;;;;;;5050853;28;20452;-72
2022/08/08 00:59:02;;;;;;;8.85;8.05;;;;;;;;;;5054340;28;20025;-71
2022/08/08 01:01:31;;;;;;;8.70;8.00;;;;;;;;;;5051594;28;20103;-73
2022/08/08 01:04:15;;;;;;;10.20;9.18;;;;;;;;;;5051930;28;20443;-72
2022/08/08 01:06:59;;;;;;;9.02;8.23;;;;;;;;;;5053414;28;20370;-74
2022/08/08 01:09:24;;;;;;;10.35;9.35;;;;;;;;;;5047867;28;20388;-71
2022/08/08 01:12:05;;;;;;;9.35;8.45;;;;;;;;;;5053857;28;20081;-71
2022/08/08 01:14:49;;;;;;;9.60;8.77;;;;;;;;;;5054686;28;20028;-72
2022/08/08 01:17:33;;;;;;;9.27;8.48;;;;;;;;;;5052769;28;20642;-72
2022/08/08 01:20:16;;;;;;;9.88;9.02;;;;;;;;;;5055589;28;20012;-70
2022/08/08 01:23:00;;;;;;;8.45;7.65;;;;;;;;;;5052647;28;20080;-70
2022/08/08 01:25:44;;;;;;;10.35;9.55;;;;;;;;;;5046221;28;20029;-70
2022/08/08 01:28:15;;;;;;;8.35;7.65;;;;;;;;;;5051754;28;20024;-70
2022/08/08 01:30:59;;;;;;;9.43;8.57;;;;;;;;;;5053531;28;20017;-74
2022/08/08 01:33:27;;;;;;;9.90;9.10;;;;;;;;;;5049280;28;20032;-73
2022/08/08 01:35:56;;;;;;;9.60;8.80;;;;;;;;;;5054109;28;20032;-72
2022/08/08 01:38:40;;;;;;;9.15;8.32;;;;;;;;;;5047991;28;20047;-71
2022/08/08 01:41:05;;;;;;;9.18;8.48;;;;;;;;;;5051969;28;20048;-71
2022/08/08 01:43:36;;;;;;;8.48;7.78;;;;;;;;;;5054854;28;20073;-70
2022/08/08 01:46:10;;;;;;;8.70;7.90;;;;;;;;;;5052476;28;20039;-71
2022/08/08 01:48:44;;;;;;;10.40;9.60;;;;;;;;;;5052768;28;20036;-74
2022/08/08 01:51:28;;;;;;;10.30;9.50;;;;;;;;;;5051826;28;20040;-72
2022/08/08 01:53:58;;;;;;;9.50;8.63;;;;;;;;;;5053568;28;20068;-74
2022/08/08 01:56:38;;;;;;;10.15;9.05;;;;;;;;;;5045875;28;20086;-71
2022/08/08 01:59:10;;;;;;;9.88;9.05;;;;;;;;;;5052628;28;20028;-72
2022/08/08 02:01:45;;;;;;;10.80;8.40;;;;;;;;;;5050629;28;20032;-72
2022/08/08 02:04:13;;;;;;;8.73;7.93;;;;;;;;;;5050829;28;20399;-71
2022/08/08 02:06:56;;;;;;;9.75;8.85;;;;;;;;;;5053672;28;20040;-72
2022/08/08 02:09:27;;;;;;;9.00;8.20;;;;;;;;;;5050432;28;20033;-72
2022/08/08 02:11:53;;;;;;;9.80;8.90;;;;;;;;;;5053680;28;20170;-76
2022/08/08 02:14:18;;;;;;;8.95;8.15;;;;;;;;;;5050352;28;20111;-72
2022/08/08 02:17:02;;;;;;;10.02;9.15;;;;;;;;;;5046824;28;20093;-74
2022/08/08 02:19:36;;;;;;;9.07;8.18;;;;;;;;;;5051418;28;20629;-74
2022/08/08 02:25:06;;;;;;;9.23;8.43;;;;;;;;;;5046306;28;20502;-71
2022/08/08 02:27:32;;;;;;;8.82;7.93;;;;;;;;;;5047223;28;20446;-72
2022/08/08 02:30:02;;;;;;;9.77;8.95;;;;;;;;;;5050080;28;20024;-73
2022/08/08 02:32:34;;;;;;;10.13;9.32;;;;;;;;;;5049486;28;20126;-72
2022/08/08 02:35:00;;;;;;;9.60;8.70;;;;;;;;;;5051967;28;20043;-71
2022/08/08 02:37:44;;;;;;;9.25;8.45;;;;;;;;;;5048157;28;20371;-71
2022/08/08 02:40:18;;;;;;;9.73;8.52;;;;;;;;;;5049055;28;20009;-70
2022/08/08 02:42:43;;;;;;;9.13;8.32;;;;;;;;;;5051434;28;20439;-71
2022/08/08 02:45:11;;;;;;;10.18;9.35;;;;;;;;;;5050997;28;20040;-71
2022/08/08 02:47:49;;;;;;;11.75;10.75;;;;;;;;;;5053358;28;20036;-71
2022/08/08 02:50:33;;;;;;;11.05;10.07;;;;;;;;;;5053933;28;20038;-72
2022/08/08 02:53:17;;;;;;;10.70;9.75;;;;;;;;;;5052791;28;20020;-71
2022/08/08 02:56:00;;;;;;;10.52;9.60;;;;;;;;;;5053636;28;20024;-71
2022/08/08 02:58:34;;;;;;;11.27;10.02;;;;;;;;;;5052432;28;20055;-70
2022/08/08 03:01:09;;;;;;;12.20;10.25;;;;;;;;;;5048708;28;20099;-71
2022/08/08 03:03:53;;;;;;;11.15;9.75;;;;;;;;;;5052980;28;20028;-70
2022/08/08 03:06:28;;;;;;;11.35;9.90;;;;;;;;;;5046685;28;20155;-71
2022/08/08 03:09:18;;;;;;;11.45;10.45;;;;;;;;;;5050994;28;20032;-70
2022/08/08 03:12:02;;;;;;;11.05;10.05;;;;;;;;;;5026742;28;20109;-74
2022/08/08 03:14:46;;;;;;;10.82;9.93;;;;;;;;;;5048918;28;20406;-70
2022/08/08 03:17:15;;;;;;;10.43;9.43;;;;;;;;;;5049796;28;20056;-71
2022/08/08 03:19:40;;;;;;;;;;;;;;;;;;5052140;28;20031;-75
2022/08/08 03:22:06;;;;;;;11.23;10.10;;;;;;;;;;5050525;28;19908;-72
2022/08/08 03:24:31;;;;;;;10.02;9.00;;;;;;;;;;5050160;28;20054;-71
2022/08/08 03:27:08;;;;;;;10.27;9.38;;;;;;;;;;5053142;28;20043;-72
2022/08/08 03:29:37;;;;;;;9.40;8.60;;;;;;;;;;5051398;28;20027;-73
2022/08/08 03:34:47;;;;;;;9.45;8.55;;;;;;;;;;5052757;28;20105;-72
2022/08/08 03:37:18;;;;;;;8.63;7.88;;;;;;;;;;5051420;28;20033;-72
2022/08/08 03:39:44;;;;;;;8.32;7.57;;;;;;;;;;5050129;28;20426;-73
2022/08/08 03:42:16;;;;;;;8.80;8.00;;;;;;;;;;5050513;28;20076;-71
2022/08/08 03:44:42;;;;;;;9.00;8.10;;;;;;;;;;5051362;28;20645;-71
2022/08/08 03:47:07;;;;;;;8.13;7.43;;;;;;;;;;5052484;28;20027;-71
2022/08/08 03:49:33;;;;;;;10.18;9.00;;;;;;;;;;5049380;28;20417;-73
2022/08/08 03:51:58;;;;;;;9.50;8.57;;;;;;;;;;5051254;28;20021;-71
2022/08/08 03:54:24;;;;;;;9.52;8.63;;;;;;;;;;5050750;28;20037;-73
2022/08/08 03:56:50;;;;;;;10.10;9.20;;;;;;;;;;5052621;28;20040;-70
2022/08/08 03:59:15;;;;;;;10.32;9.30;;;;;;;;;;5048316;28;20348;-70
2022/08/08 04:01:41;;;;;;;10.15;9.15;;;;;;;;;;5031032;28;20025;-70
2022/08/08 04:04:07;;;;;;;9.57;8.68;;;;;;;;;;5051946;28;20351;-70
2022/08/08 04:06:32;;;;;;;11.88;10.68;;;;;;;;;;5051603;28;20025;-71
2022/08/08 04:09:02;;;;;;;11.35;10.45;;;;;;;;;;5052562;28;20654;-73
2022/08/08 04:11:27;;;;;;;10.88;9.88;;;;;;;;;;5052319;28;20028;-73
2022/08/08 04:13:53;;;;;;;11.07;10.10;;;;;;;;;;5051486;28;20032;-71
2022/08/08 04:16:19;;;;;;;10.68;9.63;;;;;;;;;;5056660;28;20049;-75
2022/08/08 04:18:45;;;;;;;10.13;9.13;;;;;;;;;;5053411;28;20399;-71
2022/08/08 04:21:10;;;;;;;10.40;9.50;;;;;;;;;;5052383;28;20079;-74
2022/08/08 04:23:36;;;;;;;9.20;8.40;;;;;;;;;;5055018;28;20115;-73
2022/08/08 04:26:01;;;;;;;9.70;8.80;;;;;;;;;;5051516;28;20526;-72
2022/08/08 04:28:26;;;;;;;10.75;9.85;;;;;;;;;;5050328;28;20059;-71
2022/08/08 04:30:52;;;;;;;10.55;9.60;;;;;;;;;;5053614;28;20025;-72
2022/08/08 04:33:17;;;;;;;12.38;11.23;;;;;;;;;;5050358;28;20036;-72
2022/08/08 04:35:42;;;;;;;10.90;9.90;;;;;;;;;;5043250;28;21192;-74
2022/08/08 04:38:08;;;;;;;11.63;10.65;;;;;;;;;;5043127;28;20036;-72
2022/08/08 04:40:33;;;;;;;10.23;9.07;;;;;;;;;;5053776;28;20048;-72
2022/08/08 04:42:58;;;;;;;10.35;8.70;;;;;;;;;;5057756;28;20679;-71
2022/08/08 04:45:25;;;;;;;9.77;8.88;;;;;;;;;;5051651;28;20032;-71
2022/08/08 04:47:50;;;;;;;10.25;9.35;;;;;;;;;;5053295;28;20063;-71
2022/08/08 04:50:16;;;;;;;9.82;8.82;;;;;;;;;;5050956;28;20074;-70
2022/08/08 04:52:41;;;;;;;12.07;10.00;;;;;;;;;;5050425;28;20075;-71
2022/08/08 04:55:07;;;;;;;10.48;9.48;;;;;;;;;;5051037;28;20037;-74
2022/08/08 04:57:32;;;;;;;11.57;10.48;;;;;;;;;;5048506;28;20099;-72
2022/08/08 04:59:57;;;;;;;12.15;10.95;;;;;;;;;;5052566;28;20103;-74
2022/08/08 05:02:23;;;;;;;12.40;11.30;;;;;;;;;;5052554;28;20444;-71
2022/08/08 05:04:48;;;;;;;11.48;10.52;;;;;;;;;;5054629;28;20080;-72
2022/08/08 05:07:13;;;;;;;12.10;10.80;;;;;;;;;;5053236;28;20029;-71
2022/08/08 05:09:39;;;;;;;12.20;9.73;;;;;;;;;;5054012;28;20032;-71
2022/08/08 05:12:04;;;;;;;11.40;10.40;;;;;;;;;;5051765;28;20049;-71
2022/08/08 05:14:30;;;;;;;10.85;9.75;;;;;;;;;;5056293;28;20054;-72
2022/08/08 05:16:55;;;;;;;12.88;11.38;;;;;;;;;;5051175;28;20064;-71
2022/08/08 05:19:21;;;;;;;12.13;10.93;;;;;;;;;;5049553;28;20020;-74
2022/08/08 05:21:46;;;;;;;11.60;10.60;;;;;;;;;;5044524;28;20111;-71
2022/08/08 05:24:11;;;;;;;10.05;9.07;;;;;;;;;;5040949;28;20412;-75
2022/08/08 05:26:37;;;;;;;10.18;9.23;;;;;;;;;;5042026;28;20036;-70
2022/08/08 05:29:07;;;;;;;11.20;10.00;;;;;;;;;;5047684;28;20037;-71
2022/08/08 05:31:33;;;;;;;10.63;9.55;;;;;;;;;;5051597;28;20043;-71
2022/08/08 05:33:58;;;;;;;10.65;9.65;;;;;;;;;;5046871;28;21109;-71
2022/08/08 05:36:25;;;;;;;9.98;8.98;;;;;;;;;;5050301;28;20025;-71
2022/08/08 05:38:51;;;;;;;10.27;9.23;;;;;;;;;;5052177;28;20047;-72
2022/08/08 05:41:19;;;;;;;12.07;10.88;;;;;;;;;;5050016;28;20047;-72
2022/08/08 05:43:45;;;;;;;12.30;11.10;;;;;;;;;;5053402;28;20586;-72
2022/08/08 05:46:10;;;;;;;10.57;9.57;;;;;;;;;;5053369;28;20107;-71
2022/08/08 05:48:36;;;;;;;11.05;9.95;;;;;;;;;;5052297;28;20103;-74
2022/08/08 05:51:01;;;;;;;12.30;9.65;;;;;;;;;;5051644;28;20060;-70
2022/08/08 05:53:27;;;;;;;10.93;9.88;;;;;;;;;;5053976;28;20043;-72
2022/08/08 05:56:01;;;;;;;10.95;9.85;;;;;;;;;;5040711;28;20393;-73
2022/08/08 05:58:28;;;;;;;11.32;10.23;;;;;;;;;;5039700;28;20024;-72
2022/08/08 06:00:56;;;;;;;13.45;9.93;;;;;;;;;;5042950;28;20536;-71
2022/08/08 06:03:22;;;;;;;11.45;10.38;;;;;;;;;;5038025;28;22131;-71
2022/08/08 06:05:55;;;;;;;11.35;9.57;;;;;;;;;;5042289;28;20115;-72
2022/08/08 06:08:23;;;;;;;12.82;10.10;;;;;;;;;;5044864;28;20075;-72
2022/08/08 06:10:49;;;;;;;11.25;10.15;;;;;;;;;;5046155;28;20028;-74
2022/08/08 06:13:14;;;;;;;10.95;10.02;;;;;;;;;;5049333;28;20032;-75
2022/08/08 06:15:41;;;;;;;11.57;10.45;;;;;;;;;;5051663;28;20048;-72
2022/08/08 06:18:08;;;;;;;34.10;14.43;;;;;;;;;;5053666;28;20024;-74
2022/08/08 06:20:33;;;;;;;22.50;11.80;;;;;;;;;;5053946;28;20449;-75
2022/08/08 06:22:59;;;;;;;14.13;10.05;;;;;;;;;;5054496;28;20040;-74
2022/08/08 06:25:24;;;;;;;13.70;9.95;;;;;;;;;;5046155;28;20028;-76
2022/08/08 06:27:56;;;;;;;13.35;10.55;;;;;;;;;;5041680;28;20045;-75
2022/08/08 06:30:22;;;;;;;11.00;9.90;;;;;;;;;;5043251;28;20038;-75
2022/08/08 06:32:50;;;;;;;10.43;9.48;;;;;;;;;;5043063;28;20024;-75
2022/08/08 06:35:15;;;;;;;10.80;8.88;;;;;;;;;;5042342;28;20032;-75
2022/08/08 06:38:03;;;;;;;12.05;9.93;;;;;;;;;;5039850;28;20506;-75
2022/08/08 06:40:30;;;;;;;10.60;9.52;;;;;;;;;;5033309;28;20088;-79
2022/08/08 06:42:58;;;;;;;11.75;9.15;;;;;;;;;;5042595;28;20424;-75
2022/08/08 06:45:23;;;;;;;9.55;8.75;;;;;;;;;;5036465;28;20444;-76
2022/08/08 06:47:50;;;;;;;12.18;9.57;;;;;;;;;;5042576;28;20036;-76
2022/08/08 06:50:15;;;;;;;11.15;8.70;;;;;;;;;;5042049;28;20111;-75
2022/08/08 06:52:41;;;;;;;9.95;9.02;;;;;;;;;;5040339;28;20917;-77
2022/08/08 06:55:07;;;;;;;10.07;9.18;;;;;;;;;;5034279;28;20030;-75
2022/08/08 06:57:33;;;;;;;9.88;8.98;;;;;;;;;;5036290;28;20020;-72
2022/08/08 06:59:58;;;;;;;11.18;10.18;;;;;;;;;;5031182;28;20097;-75
2022/08/08 07:02:25;;;;;;;11.07;10.18;;;;;;;;;;5035776;28;20041;-75
2022/08/08 07:04:54;;;;;;;12.15;9.93;;;;;;;;;;5035748;28;20079;-73
2022/08/08 07:07:32;;;;;;;10.00;9.10;;;;;;;;;;5037125;28;20039;-74
2022/08/08 07:10:05;;;;;;;10.30;9.15;;;;;;;;;;5041891;28;20027;-77
2022/08/08 07:12:38;;;;;;;9.68;8.88;;;;;;;;;;5042474;28;20021;-72
2022/08/08 07:15:05;;;;;;;10.60;9.63;;;;;;;;;;5041206;28;20036;-72
2022/08/08 07:17:35;;;;;;;10.35;9.45;;;;;;;;;;5047051;28;20016;-74
2022/08/08 07:20:04;;;;;;;10.35;9.45;;;;;;;;;;5049415;28;20021;-73
2022/08/08 07:22:50;;;;;;;10.05;9.15;;;;;;;;;;5050382;28;20104;-73
2022/08/08 07:25:16;;;;;;;11.15;9.95;;;;;;;;;;5020381;28;20068;-78
2022/08/08 07:27:45;;;;;;;12.48;10.73;;;;;;;;;;5035533;28;20025;-75
2022/08/08 07:30:11;;;;;;;13.82;9.82;;;;;;;;;;5037351;28;20032;-75
2022/08/08 07:32:37;;;;;;;11.32;9.90;;;;;;;;;;5041194;28;20037;-71
2022/08/08 07:35:03;;;;;;;10.65;9.65;;;;;;;;;;5043863;28;20052;-70
2022/08/08 07:37:29;;;;;;;10.65;9.65;;;;;;;;;;5046167;28;20877;-72
2022/08/08 07:39:55;;;;;;;10.05;9.10;;;;;;;;;;5036095;28;20029;-75
2022/08/08 07:42:22;;;;;;;10.60;9.70;;;;;;;;;;5037088;28;20041;-73
2022/08/08 07:44:47;;;;;;;10.80;9.73;;;;;;;;;;5034834;28;20108;-72
2022/08/08 07:47:13;;;;;;;11.70;10.40;;;;;;;;;;5033976;28;20041;-71
2022/08/08 07:49:38;;;;;;;10.90;9.80;;;;;;;;;;5040173;28;20357;-71
2022/08/08 07:52:06;;;;;;;11.90;10.80;;;;;;;;;;5044640;28;20094;-70
2022/08/08 07:55:01;;;;;;;10.38;9.48;;;;;;;;;;5038245;28;20059;-76
2022/08/08 07:57:26;;;;;;;10.70;9.70;;;;;;;;;;5024940;28;20036;-72
2022/08/08 08:00:02;;;;;;;12.25;11.05;;;;;;;;;;5040137;28;20547;-79
2022/08/08 08:02:35;;;;;;;10.70;9.57;;;;;;;;;;5045505;28;20693;-71
2022/08/08 08:05:01;;;;;;;10.80;9.85;;;;;;;;;;5039311;28;20024;-72
2022/08/08 08:07:33;;;;;;;10.40;9.40;;;;;;;;;;5041718;28;20032;-74
2022/08/08 08:10:00;;;;;;;10.55;9.57;;;;;;;;;;5039978;28;20472;-71
2022/08/08 08:12:25;;;;;;;10.45;9.35;;;;;;;;;;5040266;28;20040;-77
2022/08/08 08:14:57;;;;;;;10.68;9.55;;;;;;;;;;5039066;28;20033;-73
2022/08/08 08:17:24;;;;;;;10.13;9.23;;;;;;;;;;5048494;28;20029;-70
2022/08/08 08:19:51;;;;;;;10.93;10.02;;;;;;;;;;5054669;28;20064;-73
2022/08/08 08:22:17;;;;;;;9.98;9.15;;;;;;;;;;5054379;28;20028;-71
2022/08/08 08:24:42;;;;;;;10.07;9.13;;;;;;;;;;5055070;28;20481;-72
2022/08/08 08:27:08;;;;;;;10.93;10.00;;;;;;;;;;5054321;28;20042;-72
2022/08/08 08:29:33;;;;;;;9.80;8.88;;;;;;;;;;5056109;28;20021;-74
2022/08/08 08:31:59;;;;;;;11.98;9.10;;;;;;;;;;5053437;28;20036;-74
2022/08/08 08:34:24;;;;;;;10.45;9.55;;;;;;;;;;5048119;28;20024;-76
2022/08/08 08:36:50;;;;;;;11.35;10.07;;;;;;;;;;5054005;28;20039;-74
2022/08/08 08:39:15;;;;;;;11.00;9.93;;;;;;;;;;5044214;28;20081;-72
2022/08/08 08:41:41;;;;;;;11.50;10.40;;;;;;;;;;5037632;28;20605;-73
2022/08/08 08:44:06;;;;;;;11.07;9.95;;;;;;;;;;5040297;28;20032;-73
2022/08/08 08:46:33;;;;;;;10.40;9.27;;;;;;;;;;5024177;28;20391;-74
2022/08/08 08:48:59;;;;;;;8.90;8.00;;;;;;;;;;5039949;28;20016;-72
2022/08/08 08:51:25;;;;;;;11.68;10.60;;;;;;;;;;5037975;28;20028;-75
2022/08/08 08:53:51;;;;;;;13.85;9.80;;;;;;;;;;5038755;28;20043;-75
2022/08/08 08:56:20;;;;;;;11.60;10.55;;;;;;;;;;5038869;28;20029;-76
2022/08/08 08:58:49;;;;;;;9.82;8.98;;;;;;;;;;5042742;28;20029;-77
2022/08/08 09:01:16;;;;;;;9.85;8.90;;;;;;;;;;5034567;28;20029;-72
2022/08/08 09:03:42;;;;;;;9.48;8.63;;;;;;;;;;5039660;28;20032;-74
2022/08/08 09:06:12;;;;;;;9.40;8.50;;;;;;;;;;5039721;28;20029;-72
2022/08/08 09:08:38;;;;;;;9.70;8.27;;;;;;;;;;5037713;28;20029;-76
2022/08/08 09:11:05;;;;;;;10.63;9.63;;;;;;;;;;5038923;28;20078;-75
2022/08/08 09:13:30;;;;;;;9.40;8.50;;;;;;;;;;5036736;28;20138;-74
2022/08/08 09:15:56;;;;;;;9.55;8.63;;;;;;;;;;5044707;28;20155;-73
2022/08/08 09:18:22;;;;;;;9.23;8.32;;;;;;;;;;5046262;28;20029;-75
2022/08/08 09:20:48;;;;;;;10.07;9.18;;;;;;;;;;5043710;28;20056;-74
2022/08/08 09:23:14;;;;;;;9.15;8.35;;;;;;;;;;5039656;28;20049;-77
2022/08/08 09:25:42;;;;;;;8.68;7.85;;;;;;;;;;5039590;28;20030;-75
2022/08/08 09:28:08;;;;;;;8.52;7.82;;;;;;;;;;5043461;28;20047;-76
2022/08/08 09:30:37;;;;;;;8.30;6.93;;;;;;;;;;5043934;28;20029;-75
2022/08/08 09:33:03;;;;;;;9.07;8.18;;;;;;;;;;5030508;28;20083;-75
2022/08/08 09:35:30;;;;;;;7.93;7.15;;;;;;;;;;5051123;28;20033;-76
2022/08/08 09:37:58;;;;;;;8.85;7.95;;;;;;;;;;5055192;28;20033;-75
2022/08/08 09:40:24;;;;;;;8.32;7.63;;;;;;;;;;5054838;28;20854;-76
2022/08/08 09:42:59;;;;;;;7.75;7.05;;;;;;;;;;5052423;28;20094;-76
2022/08/08 09:45:31;;;;;;;7.43;6.72;;;;;;;;;;5047649;28;20308;-76
2022/08/08 09:47:58;;;;;;;8.32;7.00;;;;;;;;;;5056725;28;20111;-75
2022/08/08 09:50:25;;;;;;;7.85;6.93;;;;;;;;;;5038792;28;20312;-75
2022/08/08 09:52:52;;;;;;;8.20;7.13;;;;;;;;;;5055253;28;20087;-77
2022/08/08 09:55:18;;;;;;;7.90;7.20;;;;;;;;;;5051201;28;20116;-76
2022/08/08 09:57:47;;;;;;;7.47;6.78;;;;;;;;;;5033769;28;20121;-76
2022/08/08 10:00:14;;;;;;;8.20;6.07;;;;;;;;;;5033960;28;20108;-75
2022/08/08 10:02:41;;;;;;;7.57;6.97;;;;;;;;;;5033278;28;20025;-75
2022/08/08 10:05:17;;;;;;;8.48;6.72;;;;;;;;;;5035693;28;20025;-75
2022/08/08 10:07:45;;;;;;;7.30;6.60;;;;;;;;;;5052738;28;20028;-75
2022/08/08 10:10:11;;;;;;;6.95;6.28;;;;;;;;;;5052581;28;20027;-74
2022/08/08 10:12:37;;;;;;;6.90;6.20;;;;;;;;;;5052167;28;20016;-77
2022/08/08 10:15:04;;;;;;;6.35;5.82;;;;;;;;;;5050176;28;20048;-78
2022/08/08 10:17:43;;;;;;;6.25;5.75;;;;;;;;;;5050334;28;20056;-76
2022/08/08 10:20:09;;;;;;;8.23;6.63;;;;;;;;;;5050073;28;20032;-74
2022/08/08 10:22:39;;;;;;;7.57;5.85;;;;;;;;;;5053665;28;20021;-76
2022/08/08 10:25:06;;;;;;;7.13;6.25;;;;;;;;;;5053300;28;20052;-75
2022/08/08 10:27:41;;;;;;;7.78;5.60;;;;;;;;;;5036202;28;20116;-76
2022/08/08 10:30:07;;;;;;;5.32;4.82;;;;;;;;;;5050724;28;20460;-76
2022/08/08 10:32:36;;;;;;;5.97;5.38;;;;;;;;;;5057677;28;20186;-75
2022/08/08 10:35:04;;;;;;;6.35;5.75;;;;;;;;;;5060142;28;20090;-75
2022/08/08 10:37:31;;;;;;;6.07;5.47;;;;;;;;;;5049308;28;20029;-76
2022/08/08 10:39:57;;;;;;;5.25;4.75;;;;;;;;;;5037876;28;20035;-75
2022/08/08 10:42:29;;;;;;;5.30;4.90;;;;;;;;;;5038261;28;20091;-78
2022/08/08 10:44:59;;;;;;;5.30;4.85;;;;;;;;;;5038727;28;20431;-76
2022/08/08 10:47:24;;;;;;;4.97;4.55;;;;;;;;;;5034216;28;20078;-78
2022/08/08 10:49:57;;;;;;;5.45;5.00;;;;;;;;;;5038399;28;20032;-77
2022/08/08 10:52:22;;;;;;;5.88;5.30;;;;;;;;;;5041880;28;20043;-78
2022/08/08 10:54:55;;;;;;;5.53;5.03;;;;;;;;;;5042193;28;20028;-75
2022/08/08 10:57:20;;;;;;;5.47;4.97;;;;;;;;;;5037437;28;20257;-74
2022/08/08 10:59:56;;;;;;;7.03;4.75;;;;;;;;;;5040129;28;20032;-74
2022/08/08 11:02:30;;;;;;;5.43;4.93;;;;;;;;;;5033831;28;20017;-76
2022/08/08 11:04:59;;;;;;;7.35;5.45;;;;;;;;;;5043253;28;20032;-76
2022/08/08 11:07:29;;;;;;;5.75;4.82;;;;;;;;;;5046245;28;20024;-75
2022/08/08 11:09:55;;;;;;;8.43;4.90;;;;;;;;;;5057539;28;20060;-76
2022/08/08 11:12:20;;;;;;;6.13;4.50;;;;;;;;;;5055686;28;20025;-77
2022/08/08 11:14:55;;;;;;;6.53;4.65;;;;;;;;;;5056996;28;20031;-75
2022/08/08 11:17:23;;;;;;;5.97;5.22;;;;;;;;;;5056578;28;20086;-76
2022/08/08 11:19:50;;;;;;;5.57;4.95;;;;;;;;;;5054320;28;20448;-76
2022/08/08 11:22:16;;;;;;;4.75;4.35;;;;;;;;;;5044641;28;20028;-75
2022/08/08 11:24:44;;;;;;;6.90;4.40;;;;;;;;;;5058731;28;20089;-75
2022/08/08 11:27:09;;;;;;;8.55;4.50;;;;;;;;;;5059081;28;20447;-75
2022/08/08 11:29:35;;;;;;;5.53;5.03;;;;;;;;;;5061359;28;20099;-75
2022/08/08 11:32:02;;;;;;;5.32;4.57;;;;;;;;;;5057635;28;20036;-75
2022/08/08 11:34:31;;;;;;;5.60;5.10;;;;;;;;;;5047742;28;20048;-75
2022/08/08 11:36:56;;;;;;;;;;;;;;;;;;5045465;28;20098;-73
2022/08/08 11:39:22;;;;;;;5.10;4.47;;;;;;;;;;5044681;28;19909;-74
2022/08/08 11:41:49;;;;;;;6.07;5.47;;;;;;;;;;5041623;28;20047;-75
2022/08/08 11:44:15;;;;;;;4.68;3.88;;;;;;;;;;5039100;28;20032;-76
2022/08/08 11:46:41;;;;;;;3.88;3.58;;;;;;;;;;5037079;28;20768;-76
2022/08/08 11:49:10;;;;;;;4.22;3.90;;;;;;;;;;5037897;28;20442;-75
2022/08/08 11:51:36;;;;;;;5.45;4.20;;;;;;;;;;5036356;28;20028;-75
2022/08/08 11:54:01;;;;;;;7.55;4.28;;;;;;;;;;5037023;28;20101;-75
2022/08/08 11:56:31;;;;;;;5.55;4.30;;;;;;;;;;5037527;28;20123;-76
2022/08/08 11:59:04;;;;;;;6.43;4.07;;;;;;;;;;5043593;28;20087;-77
2022/08/08 12:01:30;;;;;;;4.45;4.05;;;;;;;;;;5046758;28;20478;-74
2022/08/08 12:03:55;;;;;;;5.25;4.22;;;;;;;;;;5045041;28;20111;-75
2022/08/08 12:06:21;;;;;;;4.13;3.83;;;;;;;;;;5042715;28;20181;-75
2022/08/08 12:08:47;;;;;;;4.18;3.45;;;;;;;;;;5044249;28;20025;-75
2022/08/08 12:11:14;;;;;;;4.50;4.10;;;;;;;;;;5042098;28;20356;-76
2022/08/08 12:13:40;;;;;;;4.78;4.20;;;;;;;;;;5041148;28;20511;-76
2022/08/08 12:16:10;;;;;;;4.97;4.55;;;;;;;;;;5042162;28;20158;-75
2022/08/08 12:18:46;;;;;;;5.22;4.28;;;;;;;;;;5037104;28;20024;-77
2022/08/08 12:21:25;;;;;;;5.25;4.35;;;;;;;;;;5039944;28;20024;-77
2022/08/08 12:24:10;;;;;;;4.97;4.50;;;;;;;;;;5041867;28;20036;-77
2022/08/08 12:26:35;;;;;;;6.47;4.53;;;;;;;;;;5041203;28;20051;-76
2022/08/08 12:29:01;;;;;;;5.15;4.00;;;;;;;;;;5040651;28;20459;-75
2022/08/08 12:31:33;;;;;;;4.22;3.92;;;;;;;;;;5038885;28;21077;-75
2022/08/08 12:33:59;;;;;;;3.80;3.50;;;;;;;;;;5037916;28;20039;-76
2022/08/08 12:36:24;;;;;;;4.50;4.10;;;;;;;;;;5040637;28;20028;-76
2022/08/08 12:38:50;;;;;;;11.90;4.30;;;;;;;;;;5042952;28;20071;-75
2022/08/08 12:41:18;;;;;;;12.10;4.18;;;;;;;;;;5040693;28;20044;-74
2022/08/08 12:43:43;;;;;;;4.27;3.93;;;;;;;;;;5040779;28;21570;-74
2022/08/08 12:46:21;;;;;;;6.25;4.30;;;;;;;;;;5043297;28;20139;-75
2022/08/08 12:48:47;;;;;;;;;;;;;;;;;;5042781;28;20119;-78
2022/08/08 12:51:18;;;;;;;4.23;3.90;;;;;;;;;;5044479;28;20647;-76
2022/08/08 12:53:53;;;;;;;6.68;4.20;;;;;;;;;;5039815;28;20262;-74
2022/08/08 12:56:19;;;;;;;5.32;4.20;;;;;;;;;;5039649;28;20456;-75
2022/08/08 12:58:46;;;;;;;3.90;3.60;;;;;;;;;;5038690;28;20039;-76
2022/08/08 13:01:11;;;;;;;4.10;3.80;;;;;;;;;;5041307;28;20344;-77
2022/08/08 13:03:43;;;;;;;4.15;3.75;;;;;;;;;;5022900;28;20090;-75
2022/08/08 13:06:11;;;;;;;4.03;3.70;;;;;;;;;;5044202;28;20028;-76
2022/08/08 13:08:39;;;;;;;5.55;3.65;;;;;;;;;;5051928;28;20036;-77
2022/08/08 13:11:14;;;;;;;9.32;3.75;;;;;;;;;;5057299;28;20033;-75
2022/08/08 13:13:40;;;;;;;10.85;4.00;;;;;;;;;;5058555;28;20055;-76
2022/08/08 13:16:15;;;;;;;3.95;3.13;;;;;;;;;;5056587;28;20440;-76
2022/08/08 13:18:41;;;;;;;7.07;3.50;;;;;;;;;;5055308;28;20031;-75
2022/08/08 13:21:06;;;;;;;3.60;3.30;;;;;;;;;;5050941;28;20025;-75
2022/08/08 13:23:32;;;;;;;4.88;2.92;;;;;;;;;;5053439;28;20375;-74
2022/08/08 13:25:57;;;;;;;3.20;2.90;;;;;;;;;;5053971;28;20066;-74
2022/08/08 13:28:29;;;;;;;3.60;3.17;;;;;;;;;;5058314;28;20012;-75
2022/08/08 13:30:55;;;;;;;10.02;3.70;;;;;;;;;;5057485;28;20020;-76
2022/08/08 13:33:21;;;;;;;2.92;2.72;;;;;;;;;;5053751;28;20021;-74
2022/08/08 13:35:46;;;;;;;3.90;3.55;;;;;;;;;;5057284;28;21138;-74
2022/08/08 13:38:11;;;;;;;3.72;3.42;;;;;;;;;;5053329;28;20025;-77
2022/08/08 13:40:37;;;;;;;3.80;3.40;;;;;;;;;;5058430;28;20048;-76
2022/08/08 13:43:02;;;;;;;4.45;3.15;;;;;;;;;;5058454;28;20028;-74
2022/08/08 13:45:28;;;;;;;3.42;3.08;;;;;;;;;;5055267;28;20123;-73
2022/08/08 13:48:00;;;;;;;5.15;3.55;;;;;;;;;;5057371;28;20425;-75
2022/08/08 13:50:26;;;;;;;4.57;3.60;;;;;;;;;;5057290;28;20470;-76
2022/08/08 13:52:52;;;;;;;4.10;3.80;;;;;;;;;;5054037;28;20029;-75
2022/08/08 13:55:18;;;;;;;4.95;3.97;;;;;;;;;;5053316;28;20035;-75
2022/08/08 13:57:43;;;;;;;4.45;3.88;;;;;;;;;;5054100;28;20029;-75
2022/08/08 14:00:09;;;;;;;3.50;3.20;;;;;;;;;;5053647;28;20866;-75
2022/08/08 14:02:35;;;;;;;4.68;3.80;;;;;;;;;;5052548;28;20029;-75
2022/08/08 14:05:05;;;;;;;5.75;3.67;;;;;;;;;;5032668;28;20029;-75
2022/08/08 14:07:32;;;;;;;4.35;3.67;;;;;;;;;;5051449;28;20044;-76
2022/08/08 14:09:58;;;;;;;9.30;4.35;;;;;;;;;;5054279;28;20052;-73
2022/08/08 14:12:24;;;;;;;4.47;4.15;;;;;;;;;;5058165;28;20060;-74
2022/08/08 14:14:50;;;;;;;7.00;3.88;;;;;;;;;;5054706;28;20052;-77
2022/08/08 14:17:17;;;;;;;4.25;3.88;;;;;;;;;;5054586;28;20064;-74
2022/08/08 14:19:43;;;;;;;3.15;2.88;;;;;;;;;;5052297;28;20458;-76
2022/08/08 14:22:27;;;;;;;3.60;3.30;;;;;;;;;;5052913;28;20131;-74
2022/08/08 14:24:54;;;;;;;3.72;3.33;;;;;;;;;;5041904;28;22320;-75
2022/08/08 14:27:25;;;;;;;4.07;3.77;;;;;;;;;;5037947;28;20025;-73
2022/08/08 14:29:57;;;;;;;3.65;3.03;;;;;;;;;;5039072;28;20253;-74
2022/08/08 14:32:23;;;;;;;5.05;3.40;;;;;;;;;;5039182;28;20047;-77
2022/08/08 14:34:49;;;;;;;4.20;3.38;;;;;;;;;;5037978;28;20037;-77
2022/08/08 14:37:19;;;;;;;5.35;3.42;;;;;;;;;;5037563;28;20032;-75
2022/08/08 14:39:49;;;;;;;8.98;3.10;;;;;;;;;;5033601;28;20099;-75
2022/08/08 14:42:14;;;;;;;3.85;3.40;;;;;;;;;;5035025;28;20048;-76
2022/08/08 14:44:40;;;;;;;5.05;3.83;;;;;;;;;;5037419;28;20043;-76
2022/08/08 14:47:11;;;;;;;4.20;3.60;;;;;;;;;;5038986;28;20445;-78
2022/08/08 14:49:38;;;;;;;4.10;3.40;;;;;;;;;;5039201;28;20033;-78
2022/08/08 14:52:07;;;;;;;4.63;3.25;;;;;;;;;;5035852;28;20048;-75
2022/08/08 14:54:43;;;;;;;4.57;3.10;;;;;;;;;;5036437;28;20325;-75
2022/08/08 14:57:08;;;;;;;5.55;3.00;;;;;;;;;;5036938;28;20094;-75